createdAt,value
2023-03-18T00:01:50.771Z,59.33
2023-03-18T00:04:17.833Z,59.68
2023-03-18T00:06:44.456Z,58.68
2023-03-18T00:09:13.388Z,58.90
2023-03-18T00:11:42.522Z,59.02
2023-03-18T00:14:09.569Z,59.27
2023-03-18T00:16:36.840Z,59.32
2023-03-18T00:19:04.036Z,59.35
2023-03-18T00:21:31.738Z,59.48
2023-03-18T00:23:58.747Z,59.40
2023-03-18T00:26:27.021Z,59.58
2023-03-18T00:28:56.520Z,59.31
2023-03-18T00:31:23.337Z,59.37
2023-03-18T00:33:50.358Z,59.52
2023-03-18T00:36:18.402Z,59.41
2023-03-18T00:38:50.873Z,59.58
2023-03-18T00:41:17.229Z,59.69
2023-03-18T00:43:46.732Z,60.03
2023-03-18T00:46:16.248Z,59.94
2023-03-18T00:48:43.063Z,60.04
2023-03-18T00:51:13.860Z,60.20
2023-03-18T00:53:46.491Z,60.01
2023-03-18T00:56:15.609Z,59.75
2023-03-18T00:58:42.359Z,59.55
2023-03-18T01:01:09.578Z,59.98
2023-03-18T01:03:36.511Z,59.70
2023-03-18T01:06:04.126Z,59.93
2023-03-18T01:08:31.857Z,59.92
2023-03-18T01:10:58.668Z,59.99
2023-03-18T01:13:25.888Z,60.63
2023-03-18T01:15:52.577Z,60.96
2023-03-18T01:18:19.020Z,60.00
2023-03-18T01:20:45.475Z,59.92
2023-03-18T01:23:12.616Z,60.19
2023-03-18T01:25:39.873Z,60.54
2023-03-18T01:28:06.748Z,60.98
2023-03-18T01:30:35.449Z,60.68
2023-03-18T01:33:04.590Z,61.01
2023-03-18T01:35:32.759Z,60.90
2023-03-18T01:40:29.011Z,60.74
2023-03-18T01:43:13.174Z,61.17
2023-03-18T01:45:40.426Z,61.69
2023-03-18T01:48:17.472Z,61.38
2023-03-18T01:50:46.078Z,61.59
2023-03-18T01:53:15.499Z,61.60
2023-03-18T01:55:43.400Z,61.38
2023-03-18T01:58:17.082Z,61.61
2023-03-18T02:00:50.076Z,61.71
2023-03-18T02:03:16.824Z,61.97
2023-03-18T02:05:43.360Z,61.70
2023-03-18T02:08:09.794Z,61.97
2023-03-18T02:10:37.409Z,62.06
2023-03-18T02:13:07.498Z,61.74
2023-03-18T02:15:35.567Z,61.77
2023-03-18T02:18:15.292Z,61.87
2023-03-18T02:21:00.361Z,62.28
2023-03-18T02:23:42.667Z,62.02
2023-03-18T02:26:13.461Z,61.56
2023-03-18T02:28:42.406Z,61.69
2023-03-18T02:31:12.396Z,62.06
2023-03-18T02:33:41.826Z,62.09
2023-03-18T02:36:17.641Z,62.15
2023-03-18T02:38:45.324Z,61.82
2023-03-18T02:41:26.342Z,62.22
2023-03-18T02:43:53.477Z,62.29
2023-03-18T02:46:39.973Z,62.54
2023-03-18T02:49:07.904Z,62.93
2023-03-18T02:51:36.816Z,62.85
2023-03-18T02:54:11.207Z,63.75
2023-03-18T02:56:38.749Z,62.98
2023-03-18T02:59:05.955Z,63.03
2023-03-18T03:01:33.571Z,62.92
2023-03-18T03:04:01.521Z,63.31
2023-03-18T03:06:27.956Z,63.03
2023-03-18T03:08:54.718Z,63.39
2023-03-18T03:11:22.727Z,63.85
2023-03-18T03:13:49.758Z,63.94
2023-03-18T03:16:17.916Z,63.89
2023-03-18T03:18:44.508Z,63.89
2023-03-18T03:21:12.842Z,63.69
2023-03-18T03:23:40.196Z,63.72
2023-03-18T03:26:07.251Z,63.40
2023-03-18T03:28:34.186Z,63.80
2023-03-18T03:31:00.798Z,63.48
2023-03-18T03:33:27.647Z,63.74
2023-03-18T03:35:55.292Z,63.69
2023-03-18T03:38:22.982Z,63.80
2023-03-18T03:40:49.344Z,63.45
2023-03-18T03:43:16.142Z,63.53
2023-03-18T03:45:43.696Z,63.14
2023-03-18T03:48:10.132Z,63.37
2023-03-18T03:50:37.128Z,63.04
2023-03-18T03:53:04.666Z,63.56
2023-03-18T03:55:31.677Z,63.53
2023-03-18T03:57:58.004Z,63.66
2023-03-18T04:00:24.589Z,63.82
2023-03-18T04:02:52.991Z,63.93
2023-03-18T04:05:22.568Z,63.90
2023-03-18T04:07:49.777Z,64.02
2023-03-18T04:10:18.548Z,64.25
2023-03-18T04:12:48.631Z,63.58
2023-03-18T04:15:17.161Z,64.14
2023-03-18T04:17:44.429Z,64.55
2023-03-18T04:20:11.801Z,64.36
2023-03-18T04:22:39.507Z,64.28
2023-03-18T04:25:06.443Z,63.97
2023-03-18T04:27:33.673Z,64.29
2023-03-18T04:30:00.613Z,64.08
2023-03-18T04:32:27.088Z,64.27
2023-03-18T04:34:53.440Z,64.18
2023-03-18T04:37:20.678Z,64.26
2023-03-18T04:39:48.449Z,64.40
2023-03-18T04:42:16.203Z,64.52
2023-03-18T04:44:42.553Z,64.46
2023-03-18T04:47:09.705Z,64.55
2023-03-18T04:49:37.677Z,64.75
2023-03-18T04:52:05.319Z,64.62
2023-03-18T04:54:31.800Z,64.83
2023-03-18T04:56:58.327Z,65.08
2023-03-18T04:59:24.895Z,65.25
2023-03-18T05:01:51.268Z,65.25
2023-03-18T05:04:17.653Z,64.84
2023-03-18T05:06:44.016Z,64.67
2023-03-18T05:09:10.367Z,64.89
2023-03-18T05:11:36.740Z,64.58
2023-03-18T05:14:03.161Z,65.13
2023-03-18T05:16:30.109Z,64.63
2023-03-18T05:18:56.771Z,64.80
2023-03-18T05:21:23.184Z,65.15
2023-03-18T05:23:49.613Z,65.42
2023-03-18T05:26:17.071Z,65.24
2023-03-18T05:28:43.456Z,65.16
2023-03-18T05:31:09.862Z,65.14
2023-03-18T05:33:36.527Z,65.24
2023-03-18T05:36:03.107Z,65.06
2023-03-18T05:38:29.565Z,65.38
2023-03-18T05:40:55.948Z,65.20
2023-03-18T05:43:23.523Z,64.86
2023-03-18T05:45:51.097Z,65.13
2023-03-18T05:48:17.632Z,64.95
2023-03-18T05:50:44.490Z,64.83
2023-03-18T05:53:16.152Z,64.85
2023-03-18T05:55:43.218Z,64.94
2023-03-18T05:58:10.963Z,65.82
2023-03-18T06:00:37.602Z,66.63
2023-03-18T06:03:04.227Z,66.17
2023-03-18T06:05:31.178Z,66.33
2023-03-18T06:07:58.611Z,66.67
2023-03-18T06:10:26.246Z,65.93
2023-03-18T06:12:55.311Z,65.89
2023-03-18T06:15:22.772Z,65.57
2023-03-18T06:17:49.207Z,65.74
2023-03-18T06:20:15.992Z,65.77
2023-03-18T06:22:43.663Z,65.55
2023-03-18T06:25:10.870Z,65.55
2023-03-18T06:27:37.575Z,65.96
2023-03-18T06:30:05.443Z,65.62
2023-03-18T06:32:33.818Z,66.11
2023-03-18T06:35:00.631Z,65.66
2023-03-18T06:37:26.994Z,65.29
2023-03-18T06:39:53.528Z,65.65
2023-03-18T06:42:19.871Z,65.39
2023-03-18T06:44:50.537Z,65.46
2023-03-18T06:47:24.447Z,65.16
2023-03-18T06:49:51.022Z,65.14
2023-03-18T06:52:19.017Z,65.14
2023-03-18T06:54:45.967Z,64.90
2023-03-18T06:57:13.348Z,64.97
2023-03-18T06:59:39.941Z,64.63
2023-03-18T07:02:08.466Z,65.04
2023-03-18T07:04:35.395Z,65.14
2023-03-18T07:07:02.247Z,65.06
2023-03-18T07:09:28.676Z,65.04
2023-03-18T07:11:55.063Z,65.29
2023-03-18T07:14:21.599Z,65.08
2023-03-18T07:16:47.953Z,64.70
2023-03-18T07:19:16.210Z,64.48
2023-03-18T07:21:43.785Z,64.52
2023-03-18T07:24:11.100Z,64.49
2023-03-18T07:26:37.476Z,64.37
2023-03-18T07:29:05.323Z,64.37
2023-03-18T07:31:31.742Z,64.63
2023-03-18T07:33:58.141Z,64.62
2023-03-18T07:36:25.105Z,64.17
2023-03-18T07:38:51.768Z,64.00
2023-03-18T07:41:18.151Z,64.89
2023-03-18T07:43:44.998Z,64.42
2023-03-18T07:46:11.448Z,63.99
2023-03-18T07:48:37.823Z,62.83
2023-03-18T07:51:04.490Z,61.65
2023-03-18T07:53:30.827Z,61.89
2023-03-18T07:55:57.256Z,61.74
2023-03-18T07:58:24.547Z,61.49
2023-03-18T08:00:52.549Z,61.04
2023-03-18T08:03:18.967Z,60.28
2023-03-18T08:05:45.330Z,60.39
2023-03-18T08:08:11.742Z,59.66
2023-03-18T08:10:38.116Z,59.70
2023-03-18T08:13:04.455Z,58.92
2023-03-18T08:15:31.701Z,58.68
2023-03-18T08:17:58.354Z,58.51
2023-03-18T08:20:24.688Z,58.58
2023-03-18T08:22:51.050Z,59.05
2023-03-18T08:25:17.593Z,58.77
2023-03-18T08:27:44.093Z,58.54
2023-03-18T08:30:11.164Z,57.59
2023-03-18T08:32:38.219Z,57.65
2023-03-18T08:35:05.588Z,56.97
2023-03-18T08:37:32.527Z,56.66
2023-03-18T08:39:58.964Z,56.90
2023-03-18T08:42:25.412Z,56.77
2023-03-18T08:44:51.741Z,56.08
2023-03-18T08:47:18.114Z,55.88
2023-03-18T08:49:44.569Z,56.87
2023-03-18T08:52:11.699Z,56.04
2023-03-18T08:54:38.152Z,55.10
2023-03-18T08:57:04.961Z,55.00
2023-03-18T08:59:31.394Z,54.77
2023-03-18T09:01:57.719Z,55.10
2023-03-18T09:04:25.749Z,54.38
2023-03-18T09:06:52.096Z,54.60
2023-03-18T09:09:18.557Z,53.95
2023-03-18T09:11:46.224Z,53.44
2023-03-18T09:14:13.229Z,50.96
2023-03-18T09:16:40.110Z,50.63
2023-03-18T09:19:07.005Z,51.59
2023-03-18T09:21:33.403Z,52.24
2023-03-18T09:23:59.753Z,50.87
2023-03-18T09:26:26.086Z,49.20
2023-03-18T09:28:52.538Z,50.28
2023-03-18T09:31:19.217Z,50.59
2023-03-18T09:33:46.953Z,49.92
2023-03-18T09:36:13.767Z,49.71
2023-03-18T09:38:41.143Z,49.91
2023-03-18T09:41:10.487Z,50.52
2023-03-18T09:43:40.131Z,50.28
2023-03-18T09:46:12.995Z,49.99
2023-03-18T09:49:03.950Z,49.20
2023-03-18T09:51:49.383Z,49.01
2023-03-18T09:54:31.969Z,49.20
2023-03-18T09:56:59.180Z,49.35
2023-03-18T09:59:55.321Z,49.21
2023-03-18T10:02:37.134Z,49.08
2023-03-18T10:05:10.504Z,48.75
2023-03-18T10:07:42.705Z,48.74
2023-03-18T10:10:19.177Z,48.44
2023-03-18T10:12:52.854Z,48.14
2023-03-18T10:15:26.785Z,47.71
2023-03-18T10:17:59.785Z,47.52
2023-03-18T10:21:04.179Z,47.12
2023-03-18T10:23:55.694Z,47.39
2023-03-18T10:26:47.068Z,46.26
2023-03-18T10:29:28.742Z,46.21
2023-03-18T10:32:01.181Z,45.47
2023-03-18T10:34:39.362Z,44.74
2023-03-18T10:37:17.731Z,44.04
2023-03-18T10:39:46.298Z,43.71
2023-03-18T10:42:19.887Z,43.87
2023-03-18T10:44:47.301Z,45.05
2023-03-18T10:47:28.038Z,44.30
2023-03-18T10:50:11.021Z,44.05
2023-03-18T10:52:56.936Z,43.30
2023-03-18T10:55:29.329Z,42.93
2023-03-18T10:57:55.696Z,42.76
2023-03-18T11:00:34.002Z,42.62
2023-03-18T11:03:01.875Z,41.75
2023-03-18T11:05:35.861Z,41.27
2023-03-18T11:08:09.165Z,40.88
2023-03-18T11:10:46.716Z,41.02
2023-03-18T11:13:20.437Z,40.33
2023-03-18T11:15:52.392Z,40.56
2023-03-18T11:18:24.397Z,40.13
2023-03-18T11:21:00.975Z,38.56
2023-03-18T11:23:48.275Z,39.25
2023-03-18T11:26:22.729Z,39.50
2023-03-18T11:28:49.173Z,38.89
2023-03-18T11:31:18.730Z,38.23
2023-03-18T11:33:45.534Z,38.25
2023-03-18T11:36:18.578Z,38.13
2023-03-18T11:38:56.885Z,37.65
2023-03-18T11:41:25.314Z,36.94
2023-03-18T11:43:56.211Z,36.48
2023-03-18T11:46:25.089Z,35.84
2023-03-18T11:48:52.100Z,35.40
2023-03-18T11:51:36.564Z,35.67
2023-03-18T11:54:32.677Z,36.15
2023-03-18T11:57:11.573Z,35.64
2023-03-18T12:00:17.616Z,35.49
2023-03-18T12:03:11.855Z,36.11
2023-03-18T12:05:51.877Z,35.92
2023-03-18T12:08:29.524Z,35.54
2023-03-18T12:11:24.645Z,34.43
2023-03-18T12:14:12.723Z,34.26
2023-03-18T12:16:58.965Z,34.04
2023-03-18T12:19:51.510Z,33.65
2023-03-18T12:22:35.604Z,33.35
2023-03-18T12:25:35.921Z,33.04
2023-03-18T12:28:50.555Z,32.51
2023-03-18T12:31:39.341Z,32.25
2023-03-18T12:34:22.479Z,32.22
2023-03-18T12:37:02.458Z,32.17
2023-03-18T12:39:40.798Z,31.55
2023-03-18T12:42:07.107Z,30.72
2023-03-18T12:45:08.410Z,30.79
2023-03-18T12:47:46.767Z,30.63
2023-03-18T12:50:42.036Z,30.33
2023-03-18T12:53:17.125Z,30.43
2023-03-18T12:55:51.777Z,30.29
2023-03-18T12:58:23.103Z,29.97
2023-03-18T13:00:57.088Z,30.12
2023-03-18T13:03:36.863Z,29.82
2023-03-18T13:06:23.165Z,29.82
2023-03-18T13:09:15.431Z,29.25
2023-03-18T13:12:04.526Z,29.42
2023-03-18T13:14:46.155Z,29.17
2023-03-18T13:17:17.081Z,29.67
2023-03-18T13:19:44.641Z,29.75
2023-03-18T13:22:36.533Z,28.97
2023-03-18T13:25:17.956Z,29.02
2023-03-18T13:28:28.483Z,29.30
2023-03-18T13:31:19.476Z,28.81
2023-03-18T13:33:54.853Z,29.28
2023-03-18T13:36:44.865Z,29.47
2023-03-18T13:39:35.961Z,29.76
2023-03-18T13:42:08.453Z,30.08
2023-03-18T13:44:42.266Z,29.72
2023-03-18T13:47:15.898Z,29.50
2023-03-18T13:49:44.424Z,29.78
2023-03-18T13:52:30.323Z,29.48
2023-03-18T13:55:03.484Z,29.87
2023-03-18T13:57:29.739Z,30.56
2023-03-18T14:00:23.441Z,30.26
2023-03-18T14:03:12.735Z,30.64
2023-03-18T14:05:42.419Z,31.02
2023-03-18T14:08:33.526Z,31.35
2023-03-18T14:11:15.163Z,31.42
2023-03-18T14:13:41.484Z,31.23
2023-03-18T14:16:10.719Z,31.39
2023-03-18T14:18:37.956Z,31.56
2023-03-18T14:21:14.142Z,31.45
2023-03-18T14:23:44.667Z,31.69
2023-03-18T14:26:21.555Z,31.84
2023-03-18T14:29:02.532Z,31.66
2023-03-18T14:31:48.914Z,31.63
2023-03-18T14:34:18.027Z,31.70
2023-03-18T14:36:53.294Z,31.52
2023-03-18T14:39:41.117Z,31.24
2023-03-18T14:42:29.303Z,31.09
2023-03-18T14:45:02.295Z,30.40
2023-03-18T14:47:41.399Z,30.67
2023-03-18T14:50:22.350Z,30.54
2023-03-18T14:52:58.709Z,29.97
2023-03-18T14:55:34.076Z,29.98
2023-03-18T14:58:01.183Z,30.73
2023-03-18T15:00:31.231Z,30.65
2023-03-18T15:03:06.920Z,30.46
2023-03-18T15:05:36.687Z,30.82
2023-03-18T15:08:08.923Z,30.63
2023-03-18T15:10:36.138Z,30.35
2023-03-18T15:13:21.977Z,30.16
2023-03-18T15:15:49.121Z,30.78
2023-03-18T15:18:27.436Z,31.00
2023-03-18T15:21:02.463Z,30.74
2023-03-18T15:23:38.906Z,30.93
2023-03-18T15:26:09.798Z,30.90
2023-03-18T15:28:36.289Z,31.20
2023-03-18T15:31:05.487Z,30.97
2023-03-18T15:33:37.346Z,30.89
2023-03-18T15:36:14.936Z,31.06
2023-03-18T15:38:47.786Z,30.93
2023-03-18T15:41:16.647Z,30.96
2023-03-18T15:43:45.746Z,30.86
2023-03-18T15:46:24.413Z,30.72
2023-03-18T15:48:54.478Z,30.81
2023-03-18T15:51:54.626Z,31.04
2023-03-18T15:54:29.297Z,31.11
2023-03-18T15:56:57.969Z,31.10
2023-03-18T15:59:29.646Z,30.99
2023-03-18T16:01:57.742Z,31.29
2023-03-18T16:04:25.372Z,31.28
2023-03-18T16:06:54.661Z,31.43
2023-03-18T16:09:22.987Z,31.34
2023-03-18T16:11:55.433Z,31.21
2023-03-18T16:14:25.923Z,31.73
2023-03-18T16:16:52.813Z,31.95
2023-03-18T16:19:28.083Z,32.07
2023-03-18T16:21:56.427Z,32.27
2023-03-18T16:24:23.700Z,32.55
2023-03-18T16:26:52.738Z,32.65
2023-03-18T16:29:30.735Z,32.67
2023-03-18T16:31:57.740Z,32.77
2023-03-18T16:34:24.626Z,32.88
2023-03-18T16:36:51.914Z,33.02
2023-03-18T16:39:21.256Z,33.17
2023-03-18T16:41:47.977Z,33.27
2023-03-18T16:44:19.321Z,33.61
2023-03-18T16:46:47.884Z,33.60
2023-03-18T16:49:31.120Z,33.81
2023-03-18T16:51:58.394Z,33.93
2023-03-18T16:54:27.467Z,33.74
2023-03-18T16:56:57.329Z,34.04
2023-03-18T16:59:29.329Z,33.77
2023-03-18T17:01:56.149Z,34.05
2023-03-18T17:04:35.957Z,34.26
2023-03-18T17:07:04.696Z,34.56
2023-03-18T17:09:31.834Z,34.86
2023-03-18T17:12:02.793Z,34.72
2023-03-18T17:14:42.330Z,34.92
2023-03-18T17:17:21.647Z,35.16
2023-03-18T17:19:48.475Z,35.28
2023-03-18T17:22:21.974Z,35.28
2023-03-18T17:24:49.205Z,35.64
2023-03-18T17:27:22.006Z,35.45
2023-03-18T17:29:48.506Z,35.87
2023-03-18T17:32:16.126Z,35.86
2023-03-18T17:34:46.282Z,36.05
2023-03-18T17:37:12.609Z,36.26
2023-03-18T17:39:38.941Z,36.59
2023-03-18T17:42:05.873Z,36.55
2023-03-18T17:44:32.298Z,37.08
2023-03-18T17:46:58.726Z,37.14
2023-03-18T17:49:26.885Z,39.06
2023-03-18T17:51:55.514Z,39.18
2023-03-18T17:54:25.250Z,39.84
2023-03-18T17:56:52.766Z,39.67
2023-03-18T17:59:20.250Z,39.90
2023-03-18T18:01:48.867Z,40.26
2023-03-18T18:04:17.763Z,40.43
2023-03-18T18:06:47.305Z,39.72
2023-03-18T18:09:15.374Z,39.86
2023-03-18T18:11:46.659Z,40.16
2023-03-18T18:14:20.918Z,40.46
2023-03-18T18:16:48.405Z,40.59
2023-03-18T18:19:15.223Z,40.78
2023-03-18T18:21:44.095Z,41.06
2023-03-18T18:24:18.783Z,40.88
2023-03-18T18:26:45.577Z,40.91
2023-03-18T18:29:26.233Z,41.47
2023-03-18T18:31:52.814Z,41.43
2023-03-18T18:34:21.059Z,41.55
2023-03-18T18:36:48.639Z,41.84
2023-03-18T18:39:15.219Z,41.63
2023-03-18T18:41:41.668Z,41.80
2023-03-18T18:44:08.135Z,41.64
2023-03-18T18:46:35.888Z,42.01
2023-03-18T18:49:02.485Z,41.52
2023-03-18T18:51:29.064Z,41.21
2023-03-18T18:53:55.789Z,41.67
2023-03-18T18:56:33.981Z,41.54
2023-03-18T18:59:01.912Z,41.47
2023-03-18T19:01:28.269Z,41.86
2023-03-18T19:03:55.516Z,42.20
2023-03-18T19:06:29.381Z,41.62
2023-03-18T19:08:57.718Z,42.62
2023-03-18T19:11:25.036Z,42.62
2023-03-18T19:13:53.104Z,43.20
2023-03-18T19:16:31.672Z,43.14
2023-03-18T19:18:59.175Z,43.69
2023-03-18T19:21:26.318Z,44.09
2023-03-18T19:23:52.816Z,44.16
2023-03-18T19:26:19.496Z,44.06
2023-03-18T19:28:56.970Z,44.15
2023-03-18T19:31:26.409Z,44.90
2023-03-18T19:33:53.786Z,46.79
2023-03-18T19:36:33.172Z,46.55
2023-03-18T19:39:01.941Z,45.87
2023-03-18T19:41:29.766Z,45.89
2023-03-18T19:44:03.977Z,46.03
2023-03-18T19:46:37.002Z,45.86
2023-03-18T19:49:09.735Z,46.17
2023-03-18T19:51:36.465Z,46.12
2023-03-18T19:54:17.701Z,45.64
2023-03-18T19:56:44.130Z,45.27
2023-03-18T19:59:20.784Z,46.01
2023-03-18T20:01:47.661Z,45.94
2023-03-18T20:04:16.032Z,46.02
2023-03-18T20:06:42.598Z,45.09
2023-03-18T20:09:09.222Z,45.44
2023-03-18T20:11:35.774Z,44.98
2023-03-18T20:14:02.162Z,45.20
2023-03-18T20:16:29.363Z,45.36
2023-03-18T20:18:55.941Z,45.69
2023-03-18T20:21:27.377Z,45.11
2023-03-18T20:23:58.466Z,44.70
2023-03-18T20:26:24.855Z,45.01
2023-03-18T20:28:55.369Z,44.66
2023-03-18T20:31:21.802Z,44.76
2023-03-18T20:33:48.530Z,44.40
2023-03-18T20:36:18.279Z,44.46
2023-03-18T20:38:49.824Z,44.09
2023-03-18T20:41:17.938Z,44.03
2023-03-18T20:43:45.434Z,43.62
2023-03-18T20:46:13.850Z,43.54
2023-03-18T20:48:40.863Z,43.54
2023-03-18T20:51:46.155Z,43.82
2023-03-18T20:54:25.383Z,44.36
2023-03-18T20:56:51.779Z,45.12
2023-03-18T20:59:18.115Z,45.20
2023-03-18T21:01:44.551Z,45.39
2023-03-18T21:04:12.601Z,45.16
2023-03-18T21:06:40.051Z,45.13
2023-03-18T21:09:07.472Z,45.79
2023-03-18T21:11:33.896Z,46.32
2023-03-18T21:14:00.441Z,45.43
2023-03-18T21:16:27.622Z,45.70
2023-03-18T21:18:54.219Z,46.57
2023-03-18T21:21:24.110Z,45.72
2023-03-18T21:23:52.017Z,45.63
2023-03-18T21:26:18.655Z,46.02
2023-03-18T21:28:45.234Z,46.31
2023-03-18T21:31:22.806Z,45.83
2023-03-18T21:33:49.326Z,46.00
2023-03-18T21:36:16.013Z,45.03
2023-03-18T21:38:42.410Z,45.09
2023-03-18T21:41:20.056Z,44.42
2023-03-18T21:43:46.937Z,44.48
2023-03-18T21:46:16.730Z,44.80
2023-03-18T21:48:43.542Z,44.85
2023-03-18T21:51:35.264Z,44.61
2023-03-18T21:54:04.255Z,45.31
2023-03-18T21:56:30.626Z,45.45
2023-03-18T21:58:56.949Z,45.49
2023-03-18T22:01:27.625Z,46.01
2023-03-18T22:03:54.345Z,45.94
2023-03-18T22:06:21.948Z,45.74
2023-03-18T22:08:48.570Z,45.92
2023-03-18T22:11:18.154Z,46.01
2023-03-18T22:13:46.828Z,46.30
2023-03-18T22:16:14.926Z,46.02
2023-03-18T22:18:42.561Z,46.18
2023-03-18T22:21:24.959Z,46.39
2023-03-18T22:23:51.810Z,46.34
2023-03-18T22:26:19.855Z,46.59
2023-03-18T22:28:46.764Z,46.97
2023-03-18T22:31:33.484Z,47.06
2023-03-18T22:33:59.890Z,46.83
2023-03-18T22:36:28.772Z,46.83
2023-03-18T22:38:55.150Z,46.55
2023-03-18T22:41:30.291Z,46.75
2023-03-18T22:44:02.571Z,46.38
2023-03-18T22:46:29.863Z,46.32
2023-03-18T22:48:56.779Z,46.39
2023-03-18T22:51:27.515Z,46.25
2023-03-18T22:53:54.834Z,45.68
2023-03-18T22:56:22.306Z,46.43
2023-03-18T22:58:49.160Z,46.55
2023-03-18T23:01:18.501Z,46.07
2023-03-18T23:03:47.261Z,45.81
2023-03-18T23:06:16.619Z,45.05
2023-03-18T23:08:43.321Z,44.83
2023-03-18T23:11:09.668Z,44.94
2023-03-18T23:13:41.487Z,45.15
2023-03-18T23:16:13.849Z,44.55
2023-03-18T23:18:40.208Z,44.52
2023-03-18T23:21:06.563Z,44.46
2023-03-18T23:23:32.888Z,43.99
2023-03-18T23:25:59.274Z,45.10
2023-03-18T23:28:25.843Z,45.25
2023-03-18T23:30:53.841Z,45.52
2023-03-18T23:33:20.477Z,46.26
2023-03-18T23:35:47.963Z,45.66
2023-03-18T23:38:14.378Z,46.40
2023-03-18T23:40:40.990Z,46.55
2023-03-18T23:43:08.907Z,47.01
2023-03-18T23:45:37.192Z,46.87
2023-03-18T23:48:04.495Z,47.90
2023-03-18T23:50:31.195Z,47.75
2023-03-18T23:52:57.782Z,47.26
2023-03-18T23:55:34.043Z,47.12
2023-03-18T23:58:01.436Z,46.74
